Terminal Aerodrome Forecast
Issued by NWS

Home | Current Version | Previous Version | Text Only | Print | Product List | Glossary On
Versions: 1 2 3 4 5 6 7 8 9 10 11 12 13 14 15 16 17 18 19 20 21 22 23 24
877
FTUS46 KOTX 190522
TAFMWH
TAF
KMWH 190522Z 1906/2006 VRB04KT P6SM FEW100 BKN200
     FM191900 23012G19KT P6SM SCT080 BKN100
     FM200000 27011KT P6SM OVC100=

USA.gov is the U.S. government's official web portal to all federal, state and local government web resources and services.